createdAt,value
2017-08-20T00:01:08.501Z,12.50
2017-08-20T00:03:37.508Z,12.50
2017-08-20T00:06:06.386Z,12.40
2017-08-20T00:08:35.595Z,12.40
2017-08-20T00:11:04.565Z,12.40
2017-08-20T00:13:33.490Z,12.40
2017-08-20T00:16:02.359Z,12.40
2017-08-20T00:18:31.447Z,12.30
2017-08-20T00:21:00.365Z,12.30
2017-08-20T00:23:29.252Z,12.30
2017-08-20T00:25:58.171Z,12.30
2017-08-20T00:28:27.050Z,12.20
2017-08-20T00:30:55.993Z,12.20
2017-08-20T00:33:24.982Z,12.20
2017-08-20T00:35:53.875Z,12.20
2017-08-20T00:38:22.848Z,12.20
2017-08-20T00:40:51.783Z,12.20
2017-08-20T00:43:21.950Z,12.20
2017-08-20T00:45:50.885Z,12.20
2017-08-20T00:48:19.884Z,12.10
2017-08-20T00:50:48.811Z,12.10
2017-08-20T00:53:17.761Z,12.10
2017-08-20T00:55:46.756Z,12.10
2017-08-20T00:58:15.663Z,12.10
2017-08-20T01:00:45.423Z,12.10
2017-08-20T01:03:14.394Z,12.00
2017-08-20T01:05:43.287Z,12.00
2017-08-20T01:08:12.486Z,12.00
2017-08-20T01:10:41.417Z,12.00
2017-08-20T01:13:10.331Z,12.00
2017-08-20T01:15:39.244Z,12.00
2017-08-20T01:18:08.148Z,12.00
2017-08-20T01:20:37.105Z,11.90
2017-08-20T01:23:06.002Z,12.00
2017-08-20T01:25:35.170Z,11.90
2017-08-20T01:28:04.906Z,11.90
2017-08-20T01:30:34.260Z,11.90
2017-08-20T01:33:03.482Z,11.80
2017-08-20T01:35:32.707Z,11.80
2017-08-20T01:38:01.750Z,11.80
2017-08-20T01:40:30.749Z,11.80
2017-08-20T01:42:59.647Z,11.80
2017-08-20T01:45:28.544Z,11.90
2017-08-20T01:47:57.613Z,11.90
2017-08-20T01:50:26.771Z,11.90
2017-08-20T01:52:57.246Z,11.90
2017-08-20T01:55:26.172Z,11.80
2017-08-20T01:57:55.059Z,11.90
2017-08-20T02:00:28.727Z,11.90
2017-08-20T02:02:57.672Z,11.90
2017-08-20T02:05:26.546Z,11.90
2017-08-20T02:07:55.724Z,12.00
2017-08-20T02:10:24.623Z,11.90
2017-08-20T02:12:53.630Z,11.90
2017-08-20T02:15:22.545Z,11.90
2017-08-20T02:17:51.883Z,11.80
2017-08-20T02:20:27.687Z,11.90
2017-08-20T02:22:56.596Z,11.90
2017-08-20T02:25:25.747Z,11.90
2017-08-20T02:27:54.634Z,11.90
2017-08-20T02:30:23.543Z,11.90
2017-08-20T02:32:52.439Z,11.90
2017-08-20T02:35:21.375Z,11.90
2017-08-20T02:37:50.318Z,11.90
2017-08-20T02:40:19.208Z,11.70
2017-08-20T02:42:48.083Z,11.70
2017-08-20T02:45:16.994Z,11.80
2017-08-20T02:47:45.931Z,11.80
2017-08-20T02:50:14.854Z,11.60
2017-08-20T02:52:43.778Z,11.60
2017-08-20T02:55:12.667Z,11.60
2017-08-20T02:57:42.830Z,11.60
2017-08-20T03:00:11.733Z,11.60
2017-08-20T03:02:40.631Z,11.60
2017-08-20T03:05:09.835Z,11.60
2017-08-20T03:07:38.892Z,11.60
2017-08-20T03:10:08.032Z,11.60
2017-08-20T03:12:36.996Z,11.60
2017-08-20T03:15:06.144Z,11.60
2017-08-20T03:17:35.042Z,11.60
2017-08-20T03:20:04.187Z,11.60
2017-08-20T03:22:33.059Z,11.70
2017-08-20T03:25:01.976Z,11.60
2017-08-20T03:27:30.926Z,11.70
2017-08-20T03:29:59.881Z,11.60
2017-08-20T03:32:28.835Z,11.60
2017-08-20T03:34:57.727Z,11.60
2017-08-20T03:37:26.640Z,11.60
2017-08-20T03:39:55.674Z,11.60
2017-08-20T03:42:24.995Z,11.60
2017-08-20T03:44:53.913Z,11.60
2017-08-20T03:47:22.999Z,11.60
2017-08-20T03:49:52.078Z,11.60
2017-08-20T03:52:21.480Z,11.60
2017-08-20T03:54:50.715Z,11.70
2017-08-20T03:57:19.879Z,11.70
2017-08-20T03:59:48.763Z,11.60
2017-08-20T04:02:17.672Z,11.70
2017-08-20T04:04:46.575Z,11.60
2017-08-20T04:07:15.515Z,11.60
2017-08-20T04:09:44.386Z,11.50
2017-08-20T04:12:13.294Z,11.50
2017-08-20T04:14:42.227Z,11.40
2017-08-20T04:17:11.352Z,11.40
2017-08-20T04:19:40.625Z,11.40
2017-08-20T04:22:09.532Z,11.40
2017-08-20T04:24:38.431Z,11.50
2017-08-20T04:27:07.587Z,11.40
2017-08-20T04:29:37.611Z,11.50
2017-08-20T04:32:06.510Z,11.40
2017-08-20T04:34:35.415Z,11.50
2017-08-20T04:37:04.297Z,11.40
2017-08-20T04:39:33.218Z,11.50
2017-08-20T04:42:02.139Z,11.60
2017-08-20T04:44:31.060Z,11.60
2017-08-20T04:46:59.955Z,11.60
2017-08-20T04:49:28.895Z,11.60
2017-08-20T04:51:57.793Z,11.60
2017-08-20T04:54:26.807Z,11.60
2017-08-20T04:56:55.704Z,11.70
2017-08-20T04:59:24.590Z,11.80
2017-08-20T05:01:53.564Z,11.80
2017-08-20T05:04:22.483Z,11.80
2017-08-20T05:06:51.360Z,11.90
2017-08-20T05:09:20.303Z,11.90
2017-08-20T05:11:49.203Z,11.90
2017-08-20T05:14:18.104Z,11.90
2017-08-20T05:16:47.039Z,12.00
2017-08-20T05:19:15.956Z,12.00
2017-08-20T05:21:44.833Z,12.00
2017-08-20T05:24:13.752Z,12.00
2017-08-20T05:26:42.628Z,12.00
2017-08-20T05:29:11.635Z,12.10
2017-08-20T05:31:40.615Z,12.20
2017-08-20T05:34:09.478Z,12.40
2017-08-20T05:36:38.418Z,12.40
2017-08-20T05:39:07.327Z,12.50
2017-08-20T05:41:36.243Z,12.50
2017-08-20T05:44:05.140Z,12.60
2017-08-20T05:46:34.943Z,12.70
2017-08-20T05:49:03.880Z,12.80
2017-08-20T05:51:32.826Z,12.90
2017-08-20T05:54:01.762Z,13.00
2017-08-20T05:56:30.746Z,13.10
2017-08-20T05:58:59.661Z,13.10
2017-08-20T06:01:28.646Z,13.10
2017-08-20T06:03:57.576Z,13.30
2017-08-20T06:06:26.490Z,13.40
2017-08-20T06:08:55.460Z,13.50
2017-08-20T06:11:24.399Z,13.60
2017-08-20T06:14:07.656Z,13.80
2017-08-20T06:16:36.639Z,14.00
2017-08-20T06:19:05.552Z,13.90
2017-08-20T06:21:34.492Z,14.00
2017-08-20T06:24:03.447Z,13.90
2017-08-20T06:26:32.401Z,13.90
2017-08-20T06:29:01.365Z,13.90
2017-08-20T06:31:30.306Z,13.90
2017-08-20T06:33:59.247Z,13.80
2017-08-20T06:36:28.262Z,13.70
2017-08-20T06:38:57.219Z,13.60
2017-08-20T06:41:26.143Z,13.50
2017-08-20T06:43:55.066Z,13.50
2017-08-20T06:46:24.010Z,13.50
2017-08-20T06:48:52.999Z,13.50
2017-08-20T06:51:21.947Z,13.80
2017-08-20T06:53:50.896Z,14.30
2017-08-20T06:56:19.867Z,14.70
2017-08-20T06:58:48.818Z,15.10
2017-08-20T07:01:17.755Z,15.40
2017-08-20T07:03:46.694Z,15.80
2017-08-20T07:06:15.626Z,16.00
2017-08-20T07:08:44.539Z,16.30
2017-08-20T07:11:14.195Z,16.50
2017-08-20T07:13:43.265Z,16.60
2017-08-20T07:16:12.163Z,16.60
2017-08-20T07:18:41.088Z,16.70
2017-08-20T07:21:10.028Z,16.80
2017-08-20T07:23:39.174Z,17.10
2017-08-20T07:26:08.130Z,17.50
2017-08-20T07:28:37.468Z,17.80
2017-08-20T07:31:06.481Z,17.40
2017-08-20T07:33:35.990Z,17.20
2017-08-20T07:36:04.983Z,17.10
2017-08-20T07:38:34.022Z,17.60
2017-08-20T07:41:02.961Z,17.20
2017-08-20T07:43:31.952Z,16.80
2017-08-20T07:46:00.861Z,16.60
2017-08-20T07:48:29.780Z,16.30
2017-08-20T07:50:58.847Z,16.00
2017-08-20T07:53:27.833Z,16.00
2017-08-20T07:55:56.866Z,16.10
2017-08-20T07:58:25.842Z,16.50
2017-08-20T08:00:54.851Z,16.70
2017-08-20T08:03:24.214Z,17.10
2017-08-20T08:05:54.772Z,17.40
2017-08-20T08:08:23.859Z,18.10
2017-08-20T08:10:52.886Z,18.80
2017-08-20T08:13:21.927Z,19.50
2017-08-20T08:15:50.903Z,20.20
2017-08-20T08:18:19.895Z,20.90
2017-08-20T08:20:48.926Z,20.90
2017-08-20T08:23:17.919Z,20.40
2017-08-20T08:25:46.922Z,19.90
2017-08-20T08:28:15.883Z,19.30
2017-08-20T08:30:44.874Z,18.50
2017-08-20T08:33:13.920Z,18.20
2017-08-20T08:35:42.976Z,18.20
2017-08-20T08:38:12.357Z,18.10
2017-08-20T08:40:41.316Z,17.70
2017-08-20T08:43:10.335Z,17.80
2017-08-20T08:45:39.350Z,19.00
2017-08-20T08:48:08.306Z,19.80
2017-08-20T08:50:37.265Z,21.20
2017-08-20T08:53:06.222Z,21.50
2017-08-20T08:55:35.488Z,22.20
2017-08-20T08:58:04.435Z,23.00
2017-08-20T09:00:33.454Z,23.90
2017-08-20T09:03:02.474Z,24.30
2017-08-20T09:05:31.607Z,25.20
2017-08-20T09:08:00.550Z,25.50
2017-08-20T09:10:29.522Z,25.00
2017-08-20T09:12:58.509Z,25.10
2017-08-20T09:15:27.432Z,24.70
2017-08-20T09:17:56.396Z,24.50
2017-08-20T09:20:25.371Z,24.60
2017-08-20T09:22:54.683Z,25.00
2017-08-20T09:25:23.742Z,24.50
2017-08-20T09:27:52.808Z,24.40
2017-08-20T09:30:21.827Z,24.00
2017-08-20T09:32:50.875Z,24.10
2017-08-20T09:35:19.768Z,24.60
2017-08-20T09:37:48.786Z,23.80
2017-08-20T09:40:18.116Z,23.10
2017-08-20T09:42:47.164Z,23.50
2017-08-20T09:45:16.203Z,24.50
2017-08-20T09:47:45.135Z,23.90
2017-08-20T09:50:14.384Z,22.60
2017-08-20T09:52:43.372Z,21.70
2017-08-20T09:55:12.493Z,20.80
2017-08-20T09:57:41.481Z,20.00
2017-08-20T10:00:10.407Z,19.60
2017-08-20T10:02:39.476Z,19.30
2017-08-20T10:05:08.519Z,18.80
2017-08-20T10:07:37.547Z,18.90
2017-08-20T10:10:06.546Z,18.90
2017-08-20T10:12:35.580Z,19.00
2017-08-20T10:15:05.616Z,18.90
2017-08-20T10:17:34.727Z,19.00
2017-08-20T10:20:03.779Z,19.60
2017-08-20T10:22:32.815Z,19.90
2017-08-20T10:25:01.923Z,19.60
2017-08-20T10:27:30.921Z,19.40
2017-08-20T10:30:00.463Z,19.10
2017-08-20T10:32:29.431Z,19.10
2017-08-20T10:34:58.462Z,19.20
2017-08-20T10:37:27.479Z,20.40
2017-08-20T10:39:56.786Z,22.40
2017-08-20T10:42:25.799Z,23.10
2017-08-20T10:44:54.757Z,22.70
2017-08-20T10:47:23.815Z,21.70
2017-08-20T10:49:52.780Z,21.10
2017-08-20T10:52:21.836Z,20.60
2017-08-20T10:54:51.095Z,20.30
2017-08-20T10:57:20.219Z,20.30
2017-08-20T10:59:49.180Z,21.10
2017-08-20T11:02:18.194Z,21.20
2017-08-20T11:04:47.303Z,20.80
2017-08-20T11:08:35.655Z,20.50
2017-08-20T11:11:05.051Z,20.30
2017-08-20T11:13:34.139Z,19.90
2017-08-20T11:16:03.734Z,19.30
2017-08-20T11:18:36.595Z,19.00
2017-08-20T11:21:05.663Z,18.60
2017-08-20T11:23:34.702Z,18.40
2017-08-20T11:26:03.739Z,18.50
2017-08-20T11:28:33.182Z,18.80
2017-08-20T11:31:02.177Z,19.20
2017-08-20T11:33:31.187Z,20.20
2017-08-20T11:36:00.158Z,20.90
2017-08-20T11:38:29.090Z,21.10
2017-08-20T11:40:58.882Z,21.30
2017-08-20T11:43:27.944Z,21.40
2017-08-20T11:45:56.923Z,21.50
2017-08-20T11:48:26.520Z,21.60
2017-08-20T11:50:55.483Z,21.90
2017-08-20T11:53:24.481Z,21.90
2017-08-20T11:55:53.536Z,22.30
2017-08-20T11:58:22.496Z,22.50
2017-08-20T12:00:51.466Z,22.60
2017-08-20T12:03:20.524Z,23.10
2017-08-20T12:05:49.522Z,23.30
2017-08-20T12:08:18.519Z,23.40
2017-08-20T12:10:47.826Z,23.10
2017-08-20T12:13:16.967Z,23.00
2017-08-20T12:15:46.714Z,22.40
2017-08-20T12:18:16.013Z,22.20
2017-08-20T12:20:45.002Z,22.00
2017-08-20T12:23:14.007Z,21.60
2017-08-20T12:25:43.303Z,21.00
2017-08-20T12:28:14.049Z,20.50
2017-08-20T12:30:43.026Z,20.00
2017-08-20T12:33:12.893Z,19.90
2017-08-20T12:35:41.883Z,19.70
2017-08-20T12:38:10.932Z,19.60
2017-08-20T12:40:39.918Z,19.40
2017-08-20T12:43:08.866Z,19.90
2017-08-20T12:45:37.853Z,20.60
2017-08-20T12:48:06.991Z,21.10
2017-08-20T12:50:36.019Z,21.20
2017-08-20T12:53:05.051Z,21.40
2017-08-20T12:55:35.887Z,21.90
2017-08-20T12:58:05.500Z,22.10
2017-08-20T13:00:34.475Z,22.50
2017-08-20T13:03:03.468Z,22.80
2017-08-20T13:05:33.396Z,22.40
2017-08-20T13:08:02.431Z,21.70
2017-08-20T13:10:34.613Z,21.40
2017-08-20T13:13:03.826Z,21.00
2017-08-20T13:15:32.920Z,20.70
2017-08-20T13:18:02.038Z,20.40
2017-08-20T13:20:31.292Z,20.20
2017-08-20T13:23:00.340Z,19.80
2017-08-20T13:25:29.400Z,19.60
2017-08-20T13:27:58.520Z,19.40
2017-08-20T13:30:27.672Z,19.40
2017-08-20T13:32:57.716Z,19.50
2017-08-20T13:35:27.073Z,19.50
2017-08-20T13:37:56.910Z,19.50
2017-08-20T13:40:27.228Z,19.70
2017-08-20T13:42:56.868Z,19.80
2017-08-20T13:45:26.295Z,19.80
2017-08-20T13:47:55.356Z,19.90
2017-08-20T13:50:24.401Z,20.10
2017-08-20T13:52:53.434Z,20.30
2017-08-20T13:55:23.337Z,20.10
2017-08-20T14:00:48.026Z,19.80
2017-08-20T14:03:18.273Z,19.80
